createdAt,value
2017-03-05T00:00:44.405Z,0
2017-03-05T00:01:43.958Z,0
2017-03-05T00:02:43.875Z,0
2017-03-05T00:03:43.878Z,0
2017-03-05T00:04:44.611Z,0
2017-03-05T00:05:44.247Z,0
2017-03-05T00:06:44.550Z,0
2017-03-05T00:07:44.600Z,0
2017-03-05T00:08:43.367Z,0
2017-03-05T00:09:44.105Z,0
2017-03-05T00:10:44.151Z,0
2017-03-05T00:11:44.073Z,0
2017-03-05T00:12:44.127Z,0
2017-03-05T00:13:43.712Z,0
2017-03-05T00:14:44.393Z,0
2017-03-05T00:15:43.679Z,0
2017-03-05T00:16:44.346Z,0
2017-03-05T00:17:43.940Z,0
2017-03-05T00:18:44.324Z,0
2017-03-05T00:19:43.923Z,0
2017-03-05T00:20:43.499Z,0
2017-03-05T00:21:43.875Z,0
2017-03-05T00:22:43.433Z,0
2017-03-05T00:23:43.153Z,0
2017-03-05T00:24:44.191Z,0
2017-03-05T00:25:43.764Z,0
2017-03-05T00:26:44.156Z,0
2017-03-05T00:27:42.960Z,0
2017-03-05T00:28:43.822Z,0
2017-03-05T00:29:44.102Z,0
2017-03-05T00:30:43.729Z,0
2017-03-05T00:31:43.695Z,0
2017-03-05T00:32:44.060Z,0
2017-03-05T00:33:43.986Z,0
2017-03-05T00:34:44.019Z,0
2017-03-05T00:35:43.570Z,0
2017-03-05T00:36:43.990Z,0
2017-03-05T00:37:43.152Z,0
2017-03-05T00:38:43.504Z,0
2017-03-05T00:39:43.091Z,0
2017-03-05T00:40:43.860Z,0
2017-03-05T00:41:43.068Z,0
2017-03-05T00:42:42.633Z,0
2017-03-05T00:43:43.455Z,0
2017-03-05T00:44:43.396Z,0
2017-03-05T00:45:43.346Z,0
2017-03-05T00:46:43.341Z,0
2017-03-05T00:47:43.292Z,0
2017-03-05T00:48:43.300Z,0
2017-03-05T00:49:43.273Z,0
2017-03-05T00:50:43.243Z,0
2017-03-05T00:51:43.228Z,0
2017-03-05T00:52:43.220Z,0
2017-03-05T00:53:42.407Z,0
2017-03-05T00:54:42.768Z,0
2017-03-05T00:55:43.530Z,0
2017-03-05T00:56:43.507Z,0
2017-03-05T00:57:42.734Z,0
2017-03-05T00:58:42.673Z,0
2017-03-05T00:59:42.793Z,0
2017-03-05T01:00:43.028Z,0
2017-03-05T01:01:43.438Z,0
2017-03-05T01:02:43.014Z,0
2017-03-05T01:03:42.974Z,0
2017-03-05T01:04:42.630Z,0
2017-03-05T01:05:42.581Z,0
2017-03-05T01:06:42.891Z,0
2017-03-05T01:07:42.907Z,0
2017-03-05T01:08:43.251Z,0
2017-03-05T01:09:42.860Z,0
2017-03-05T01:10:42.809Z,0
2017-03-05T01:11:42.512Z,0
2017-03-05T01:12:42.377Z,0
2017-03-05T01:13:41.959Z,0
2017-03-05T01:14:42.753Z,0
2017-03-05T01:15:42.317Z,0
2017-03-05T01:16:42.693Z,0
2017-03-05T01:17:42.416Z,0
2017-03-05T01:18:42.334Z,0
2017-03-05T01:19:42.225Z,0
2017-03-05T01:20:42.217Z,0
2017-03-05T01:21:42.195Z,0
2017-03-05T01:22:41.774Z,0
2017-03-05T01:23:42.153Z,0
2017-03-05T01:24:42.522Z,0
2017-03-05T01:25:42.091Z,0
2017-03-05T01:26:42.082Z,0
2017-03-05T01:27:41.664Z,0
2017-03-05T01:28:42.464Z,0
2017-03-05T01:29:42.011Z,0
2017-03-05T01:30:42.069Z,0
2017-03-05T01:31:41.589Z,0
2017-03-05T01:32:42.379Z,0
2017-03-05T01:33:42.338Z,0
2017-03-05T01:34:42.800Z,0
2017-03-05T01:35:42.685Z,0
2017-03-05T01:36:41.857Z,0
2017-03-05T01:37:41.893Z,0
2017-03-05T01:38:42.334Z,0
2017-03-05T01:39:42.586Z,0
2017-03-05T01:40:41.835Z,0
2017-03-05T01:41:41.393Z,0
2017-03-05T01:42:42.177Z,0
2017-03-05T01:43:41.712Z,0
2017-03-05T01:44:42.622Z,0
2017-03-05T01:45:41.692Z,0
2017-03-05T01:46:41.648Z,0
2017-03-05T01:47:42.414Z,0
2017-03-05T01:48:42.040Z,0
2017-03-05T01:49:41.220Z,0
2017-03-05T01:50:41.607Z,0
2017-03-05T01:51:41.579Z,0
2017-03-05T01:52:41.519Z,0
2017-03-05T01:53:41.504Z,0
2017-03-05T01:54:42.287Z,0
2017-03-05T01:55:41.450Z,0
2017-03-05T01:56:41.818Z,0
2017-03-05T01:57:41.876Z,0
2017-03-05T01:58:41.796Z,0
2017-03-05T01:59:41.404Z,0
2017-03-05T02:00:41.756Z,0
2017-03-05T02:01:41.715Z,0
2017-03-05T02:02:41.715Z,0
2017-03-05T02:03:41.814Z,0
2017-03-05T02:04:41.680Z,0
2017-03-05T02:05:42.011Z,0
2017-03-05T02:06:41.618Z,0
2017-03-05T02:07:41.592Z,0
2017-03-05T02:08:41.584Z,0
2017-03-05T02:09:41.201Z,0
2017-03-05T02:10:41.151Z,0
2017-03-05T02:11:41.229Z,0
2017-03-05T02:12:41.098Z,0
2017-03-05T02:13:41.498Z,0
2017-03-05T02:14:41.487Z,0
2017-03-05T02:15:41.498Z,0
2017-03-05T02:16:41.407Z,0
2017-03-05T02:17:41.893Z,0
2017-03-05T02:18:40.606Z,0
2017-03-05T02:19:41.447Z,0
2017-03-05T02:20:41.723Z,0
2017-03-05T02:21:41.326Z,0
2017-03-05T02:22:40.895Z,0
2017-03-05T02:23:41.652Z,0
2017-03-05T02:24:40.843Z,0
2017-03-05T02:25:41.217Z,0
2017-03-05T02:26:40.816Z,0
2017-03-05T02:27:40.510Z,0
2017-03-05T02:28:41.190Z,0
2017-03-05T02:29:41.120Z,0
2017-03-05T02:30:40.725Z,0
2017-03-05T02:31:40.719Z,0
2017-03-05T02:32:41.043Z,0
2017-03-05T02:33:41.399Z,0
2017-03-05T02:34:41.400Z,0
2017-03-05T02:35:40.229Z,0
2017-03-05T02:36:40.988Z,0
2017-03-05T02:37:40.966Z,0
2017-03-05T02:38:40.660Z,0
2017-03-05T02:39:41.286Z,0
2017-03-05T02:40:40.983Z,0
2017-03-05T02:41:40.478Z,0
2017-03-05T02:42:40.874Z,0
2017-03-05T02:43:41.282Z,0
2017-03-05T02:44:40.913Z,0
2017-03-05T02:45:40.781Z,0
2017-03-05T02:46:40.490Z,0
2017-03-05T02:47:40.745Z,0
2017-03-05T02:48:39.961Z,0
2017-03-05T02:49:40.686Z,0
2017-03-05T02:50:40.658Z,0
2017-03-05T02:51:40.674Z,0
2017-03-05T02:52:41.045Z,0
2017-03-05T02:53:40.617Z,0
2017-03-05T02:54:40.241Z,0
2017-03-05T02:55:40.176Z,0
2017-03-05T02:56:40.588Z,0
2017-03-05T02:57:39.728Z,0
2017-03-05T02:58:40.129Z,0
2017-03-05T02:59:40.075Z,0
2017-03-05T03:00:39.686Z,0
2017-03-05T03:01:40.889Z,0
2017-03-05T03:02:40.413Z,0
2017-03-05T03:03:40.398Z,0
2017-03-05T03:04:40.382Z,0
2017-03-05T03:05:40.401Z,0
2017-03-05T03:06:40.349Z,0
2017-03-05T03:07:40.699Z,0
2017-03-05T03:08:40.286Z,0
2017-03-05T03:09:40.670Z,0
2017-03-05T03:10:39.846Z,0
2017-03-05T03:11:40.210Z,0
2017-03-05T03:12:40.631Z,0
2017-03-05T03:13:40.556Z,0
2017-03-05T03:14:40.544Z,0
2017-03-05T03:15:40.143Z,0
2017-03-05T03:16:39.828Z,0
2017-03-05T03:17:39.705Z,0
2017-03-05T03:18:39.329Z,0
2017-03-05T03:19:39.667Z,0
2017-03-05T03:20:40.025Z,0
2017-03-05T03:21:40.023Z,0
2017-03-05T03:22:39.984Z,0
2017-03-05T03:23:39.573Z,0
2017-03-05T03:24:39.547Z,0
2017-03-05T03:25:39.915Z,0
2017-03-05T03:26:40.305Z,0
2017-03-05T03:27:39.475Z,0
2017-03-05T03:28:39.843Z,0
2017-03-05T03:29:39.437Z,0
2017-03-05T03:30:39.409Z,0
2017-03-05T03:31:39.821Z,0
2017-03-05T03:32:39.376Z,0
2017-03-05T03:33:40.126Z,0
2017-03-05T03:34:40.220Z,0
2017-03-05T03:35:39.784Z,0
2017-03-05T03:36:39.693Z,0
2017-03-05T03:37:39.285Z,0
2017-03-05T03:38:39.261Z,0
2017-03-05T03:39:38.871Z,0
2017-03-05T03:40:39.598Z,0
2017-03-05T03:41:39.175Z,0
2017-03-05T03:42:39.543Z,0
2017-03-05T03:43:39.521Z,0
2017-03-05T03:44:39.183Z,0
2017-03-05T03:45:38.693Z,0
2017-03-05T03:46:39.883Z,0
2017-03-05T03:47:39.812Z,0
2017-03-05T03:48:39.050Z,0
2017-03-05T03:49:39.422Z,0
2017-03-05T03:50:38.997Z,0
2017-03-05T03:51:39.737Z,0
2017-03-05T03:52:39.347Z,0
2017-03-05T03:53:38.994Z,0
2017-03-05T03:54:39.699Z,0
2017-03-05T03:55:39.263Z,0
2017-03-05T03:56:39.299Z,0
2017-03-05T03:57:39.230Z,0
2017-03-05T03:58:39.332Z,0
2017-03-05T03:59:39.191Z,0
2017-03-05T04:00:38.788Z,0
2017-03-05T04:01:38.403Z,0
2017-03-05T04:02:38.756Z,0
2017-03-05T04:03:39.486Z,0
2017-03-05T04:04:39.080Z,0
2017-03-05T04:05:38.669Z,0
2017-03-05T04:06:38.694Z,0
2017-03-05T04:07:38.628Z,0
2017-03-05T04:08:39.384Z,0
2017-03-05T04:09:38.977Z,0
2017-03-05T04:10:38.636Z,0
2017-03-05T04:11:39.355Z,0
2017-03-05T04:12:38.567Z,0
2017-03-05T04:13:39.264Z,0
2017-03-05T04:14:38.484Z,0
2017-03-05T04:15:38.884Z,0
2017-03-05T04:16:38.513Z,0
2017-03-05T04:17:38.078Z,0
2017-03-05T04:18:39.142Z,0
2017-03-05T04:19:38.367Z,0
2017-03-05T04:20:38.730Z,0
2017-03-05T04:21:39.082Z,0
2017-03-05T04:22:38.692Z,0
2017-03-05T04:23:38.661Z,0
2017-03-05T04:24:39.051Z,0
2017-03-05T04:25:38.639Z,0
2017-03-05T04:26:39.003Z,0
2017-03-05T04:27:38.181Z,0
2017-03-05T04:28:38.219Z,0
2017-03-05T04:29:38.154Z,0
2017-03-05T04:30:38.175Z,0
2017-03-05T04:31:38.490Z,0
2017-03-05T04:32:38.172Z,0
2017-03-05T04:33:38.473Z,0
2017-03-05T04:34:38.433Z,0
2017-03-05T04:35:38.477Z,0
2017-03-05T04:36:37.593Z,0
2017-03-05T04:37:38.762Z,0
2017-03-05T04:38:38.335Z,0
2017-03-05T04:39:37.543Z,0
2017-03-05T04:40:38.299Z,0
2017-03-05T04:41:38.279Z,0
2017-03-05T04:42:38.631Z,0
2017-03-05T04:43:38.704Z,0
2017-03-05T04:44:38.194Z,0
2017-03-05T04:45:37.487Z,0
2017-03-05T04:46:38.544Z,0
2017-03-05T04:47:37.737Z,0
2017-03-05T04:48:37.716Z,0
2017-03-05T04:49:38.469Z,0
2017-03-05T04:50:37.295Z,0
2017-03-05T04:51:38.441Z,0
2017-03-05T04:52:38.036Z,0
2017-03-05T04:53:38.404Z,0
2017-03-05T04:54:37.599Z,0
2017-03-05T04:55:37.970Z,0
2017-03-05T04:56:37.971Z,0
2017-03-05T04:57:37.570Z,0
2017-03-05T04:58:37.511Z,0
2017-03-05T04:59:37.996Z,0
2017-03-05T05:00:37.525Z,0
2017-03-05T05:01:37.819Z,0
2017-03-05T05:02:37.492Z,0
2017-03-05T05:03:37.387Z,0
2017-03-05T05:04:37.765Z,0
2017-03-05T05:05:36.966Z,0
2017-03-05T05:06:38.144Z,0
2017-03-05T05:07:37.317Z,0
2017-03-05T05:08:37.665Z,0
2017-03-05T05:09:37.315Z,0
2017-03-05T05:10:37.624Z,0
2017-03-05T05:11:36.852Z,0
2017-03-05T05:12:37.199Z,0
2017-03-05T05:13:37.952Z,0
2017-03-05T05:14:36.790Z,0
2017-03-05T05:15:37.325Z,0
2017-03-05T05:16:37.203Z,0
2017-03-05T05:17:37.551Z,0
2017-03-05T05:18:37.964Z,0
2017-03-05T05:19:37.079Z,0
2017-03-05T05:20:37.522Z,0
2017-03-05T05:21:37.388Z,0
2017-03-05T05:22:37.068Z,0
2017-03-05T05:23:37.360Z,0
2017-03-05T05:24:37.324Z,0
2017-03-05T05:25:37.296Z,0
2017-03-05T05:26:36.216Z,0
2017-03-05T05:27:37.758Z,0
2017-03-05T05:28:36.845Z,0
2017-03-05T05:29:37.609Z,0
2017-03-05T05:30:36.829Z,0
2017-03-05T05:31:37.183Z,0
2017-03-05T05:32:36.771Z,0
2017-03-05T05:33:37.603Z,0
2017-03-05T05:34:37.501Z,0
2017-03-05T05:35:36.718Z,0
2017-03-05T05:36:35.885Z,0
2017-03-05T05:37:36.271Z,0
2017-03-05T05:38:36.638Z,0
2017-03-05T05:39:36.617Z,0
2017-03-05T05:40:36.187Z,0
2017-03-05T05:41:36.188Z,0
2017-03-05T05:42:36.960Z,0
2017-03-05T05:43:36.157Z,0
2017-03-05T05:44:37.295Z,0
2017-03-05T05:45:36.105Z,0
2017-03-05T05:46:36.485Z,0
2017-03-05T05:47:36.852Z,0
2017-03-05T05:48:36.824Z,0
2017-03-05T05:49:36.855Z,0
2017-03-05T05:50:37.155Z,0
2017-03-05T05:51:36.765Z,0
2017-03-05T05:52:36.335Z,0
2017-03-05T05:53:36.362Z,0
2017-03-05T05:54:36.309Z,0
2017-03-05T05:55:35.862Z,0
2017-03-05T05:56:36.671Z,0
2017-03-05T05:57:37.103Z,0
2017-03-05T05:58:37.078Z,0
2017-03-05T05:59:35.798Z,0
2017-03-05T06:00:36.543Z,0
2017-03-05T06:01:36.578Z,0
2017-03-05T06:02:36.548Z,0
2017-03-05T06:03:36.872Z,0
2017-03-05T06:04:36.924Z,0
2017-03-05T06:05:36.454Z,0
2017-03-05T06:06:35.999Z,0
2017-03-05T06:07:35.615Z,0
2017-03-05T06:08:36.805Z,0
2017-03-05T06:09:36.342Z,0
2017-03-05T06:10:35.542Z,0
2017-03-05T06:11:36.343Z,0
2017-03-05T06:12:35.905Z,0
2017-03-05T06:13:36.241Z,0
2017-03-05T06:14:36.751Z,0
2017-03-05T06:15:36.219Z,0
2017-03-05T06:16:35.805Z,0
2017-03-05T06:17:36.159Z,0
2017-03-05T06:18:36.208Z,0
2017-03-05T06:19:35.400Z,0
2017-03-05T06:20:35.717Z,0
2017-03-05T06:21:36.226Z,0
2017-03-05T06:22:35.280Z,0
2017-03-05T06:23:35.662Z,0
2017-03-05T06:24:35.615Z,0
2017-03-05T06:25:35.994Z,0
2017-03-05T06:26:35.985Z,0
2017-03-05T06:27:35.565Z,0
2017-03-05T06:28:35.942Z,0
2017-03-05T06:29:35.909Z,0
2017-03-05T06:30:35.885Z,0
2017-03-05T06:31:35.082Z,0
2017-03-05T06:32:36.222Z,0
2017-03-05T06:33:35.095Z,0
2017-03-05T06:34:36.233Z,0
2017-03-05T06:35:35.101Z,0
2017-03-05T06:36:35.427Z,0
2017-03-05T06:37:35.729Z,0
2017-03-05T06:38:34.944Z,0
2017-03-05T06:39:35.740Z,0
2017-03-05T06:40:35.659Z,0
2017-03-05T06:41:35.244Z,0
2017-03-05T06:42:35.362Z,0
2017-03-05T06:43:34.950Z,5
2017-03-05T06:44:35.570Z,5
2017-03-05T06:45:35.960Z,5
2017-03-05T06:46:35.615Z,5
2017-03-05T06:47:35.933Z,5
2017-03-05T06:48:35.494Z,5
2017-03-05T06:49:35.463Z,5
2017-03-05T06:50:35.065Z,10
2017-03-05T06:51:35.052Z,10
2017-03-05T06:52:35.476Z,10
2017-03-05T06:53:35.830Z,10
2017-03-05T06:54:34.650Z,10
2017-03-05T06:55:35.382Z,10
2017-03-05T06:56:35.729Z,10
2017-03-05T06:57:34.923Z,10
2017-03-05T06:58:35.292Z,10
2017-03-05T06:59:34.967Z,10
2017-03-05T07:00:35.239Z,10
2017-03-05T07:01:34.828Z,10
2017-03-05T07:02:35.197Z,10
2017-03-05T07:03:35.286Z,10
2017-03-05T07:04:34.806Z,10
2017-03-05T07:05:35.165Z,10
2017-03-05T07:06:35.090Z,10
2017-03-05T07:07:34.683Z,10
2017-03-05T07:08:35.058Z,10
2017-03-05T07:09:35.046Z,10
2017-03-05T07:10:34.626Z,10
2017-03-05T07:11:34.222Z,10
2017-03-05T07:12:34.227Z,15
2017-03-05T07:13:34.180Z,15
2017-03-05T07:14:34.951Z,15
2017-03-05T07:15:34.920Z,15
2017-03-05T07:16:35.300Z,15
2017-03-05T07:17:34.885Z,20
2017-03-05T07:18:34.457Z,20
2017-03-05T07:19:35.250Z,20
2017-03-05T07:20:34.445Z,20
2017-03-05T07:21:34.399Z,20
2017-03-05T07:22:34.769Z,20
2017-03-05T07:23:34.749Z,20
2017-03-05T07:24:35.106Z,20
2017-03-05T07:25:35.103Z,25
2017-03-05T07:26:35.079Z,25
2017-03-05T07:27:34.631Z,20
2017-03-05T07:28:34.647Z,20
2017-03-05T07:29:34.211Z,25
2017-03-05T07:30:34.609Z,35
2017-03-05T07:31:34.229Z,40
2017-03-05T07:32:34.198Z,40
2017-03-05T07:33:34.132Z,45
2017-03-05T07:34:34.549Z,45
2017-03-05T07:35:34.849Z,50
2017-03-05T07:36:34.107Z,65
2017-03-05T07:37:34.426Z,70
2017-03-05T07:38:34.067Z,75
2017-03-05T07:39:34.395Z,80
2017-03-05T07:40:34.104Z,75
2017-03-05T07:41:34.335Z,65
2017-03-05T07:42:33.251Z,60
2017-03-05T07:43:33.903Z,45
2017-03-05T07:44:34.688Z,40
2017-03-05T07:45:34.262Z,45
2017-03-05T07:46:34.623Z,45
2017-03-05T07:47:34.210Z,45
2017-03-05T07:48:33.812Z,45
2017-03-05T07:49:33.802Z,45
2017-03-05T07:50:34.300Z,40
2017-03-05T07:51:33.361Z,30
2017-03-05T07:52:33.782Z,25
2017-03-05T07:53:34.543Z,25
2017-03-05T07:54:34.048Z,25
2017-03-05T07:55:34.169Z,25
2017-03-05T07:56:33.278Z,30
2017-03-05T07:57:33.976Z,45
2017-03-05T07:58:33.716Z,80
2017-03-05T07:59:33.626Z,110
2017-03-05T08:00:34.335Z,175
2017-03-05T08:01:34.035Z,495
2017-03-05T08:02:34.074Z,355
2017-03-05T08:03:33.094Z,1040
2017-03-05T08:04:34.243Z,635
2017-03-05T08:05:33.433Z,330
2017-03-05T08:06:33.905Z,205
2017-03-05T08:07:34.180Z,160
2017-03-05T08:08:33.030Z,110
2017-03-05T08:09:33.833Z,125
2017-03-05T08:10:33.510Z,130
2017-03-05T08:11:33.759Z,120
2017-03-05T08:12:33.319Z,105
2017-03-05T08:13:33.687Z,85
2017-03-05T08:14:32.974Z,65
2017-03-05T08:15:33.226Z,70
2017-03-05T08:16:32.542Z,85
2017-03-05T08:17:33.569Z,60
2017-03-05T08:18:33.205Z,65
2017-03-05T08:19:33.945Z,100
2017-03-05T08:20:33.537Z,105
2017-03-05T08:21:33.135Z,85
2017-03-05T08:22:33.472Z,65
2017-03-05T08:23:33.505Z,90
2017-03-05T08:24:33.842Z,90
2017-03-05T08:25:33.081Z,70
2017-03-05T08:26:32.652Z,65
2017-03-05T08:27:33.897Z,70
2017-03-05T08:28:32.968Z,80
2017-03-05T08:29:33.417Z,80
2017-03-05T08:30:32.553Z,80
2017-03-05T08:31:33.284Z,105
2017-03-05T08:32:32.889Z,125
2017-03-05T08:33:33.730Z,130
2017-03-05T08:34:33.657Z,125
2017-03-05T08:35:33.667Z,130
2017-03-05T08:36:32.492Z,140
2017-03-05T08:37:33.186Z,130
2017-03-05T08:38:33.185Z,100
2017-03-05T08:39:33.145Z,90
2017-03-05T08:40:33.140Z,80
2017-03-05T08:41:33.478Z,65
2017-03-05T08:42:33.515Z,60
2017-03-05T08:43:33.509Z,55
2017-03-05T08:44:33.039Z,55
2017-03-05T08:45:33.019Z,50
2017-03-05T08:46:32.641Z,50
2017-03-05T08:47:32.573Z,45
2017-03-05T08:48:32.551Z,45
2017-03-05T08:49:32.923Z,45
2017-03-05T08:50:33.331Z,45
2017-03-05T08:51:32.496Z,45
2017-03-05T08:52:32.887Z,45
2017-03-05T08:53:32.089Z,50
2017-03-05T08:54:33.265Z,50
2017-03-05T08:55:33.287Z,55
2017-03-05T08:56:32.410Z,55
2017-03-05T08:57:32.364Z,65
2017-03-05T08:58:33.170Z,65
2017-03-05T08:59:32.334Z,60
2017-03-05T09:00:33.090Z,65
2017-03-05T09:01:33.075Z,65
2017-03-05T09:02:32.293Z,65
2017-03-05T09:03:33.013Z,65
2017-03-05T09:04:33.006Z,75
2017-03-05T09:05:32.595Z,80
2017-03-05T09:06:32.973Z,75
2017-03-05T09:07:32.161Z,85
2017-03-05T09:08:32.538Z,90
2017-03-05T09:09:32.151Z,90
2017-03-05T09:10:32.901Z,90
2017-03-05T09:11:31.708Z,95
2017-03-05T09:12:32.460Z,95
2017-03-05T09:13:32.820Z,105
2017-03-05T09:14:32.401Z,135
2017-03-05T09:15:31.984Z,150
2017-03-05T09:16:32.790Z,145
2017-03-05T09:17:31.943Z,190
2017-03-05T09:18:32.013Z,205
2017-03-05T09:19:31.532Z,285
2017-03-05T09:20:32.713Z,170
2017-03-05T09:21:32.252Z,130
2017-03-05T09:22:32.230Z,175
2017-03-05T09:23:32.231Z,135
2017-03-05T09:24:31.810Z,145
2017-03-05T09:25:32.170Z,200
2017-03-05T09:26:32.161Z,320
2017-03-05T09:27:32.143Z,265
2017-03-05T09:28:32.494Z,635
2017-03-05T09:29:32.087Z,310
2017-03-05T09:30:32.089Z,1265
2017-03-05T09:31:32.116Z,875
2017-03-05T09:32:32.037Z,1325
2017-03-05T09:33:32.016Z,820
2017-03-05T09:34:32.384Z,925
2017-03-05T09:35:32.385Z,1340
2017-03-05T09:36:32.379Z,325
2017-03-05T09:37:31.984Z,465
2017-03-05T09:38:32.332Z,465
2017-03-05T09:39:32.312Z,520
2017-03-05T09:40:32.330Z,670
2017-03-05T09:41:32.004Z,370
2017-03-05T09:42:31.891Z,480
2017-03-05T09:43:31.479Z,385
2017-03-05T09:44:32.239Z,245
2017-03-05T09:45:31.823Z,1120
2017-03-05T09:46:31.801Z,1285
2017-03-05T09:47:31.798Z,1210
2017-03-05T09:48:31.757Z,1120
2017-03-05T09:49:31.372Z,1090
2017-03-05T09:50:32.136Z,1160
2017-03-05T09:51:31.441Z,1225
2017-03-05T09:52:31.720Z,915
2017-03-05T09:53:32.095Z,420
2017-03-05T09:54:31.693Z,1320
2017-03-05T09:55:32.142Z,920
2017-03-05T09:56:31.271Z,340
2017-03-05T09:57:30.946Z,325
2017-03-05T09:58:32.011Z,500
2017-03-05T09:59:31.611Z,1145
2017-03-05T10:00:31.586Z,380
2017-03-05T10:01:31.578Z,285
2017-03-05T10:02:31.181Z,255
2017-03-05T10:03:32.019Z,210
2017-03-05T10:04:31.943Z,220
2017-03-05T10:05:31.573Z,205
2017-03-05T10:06:31.878Z,185
2017-03-05T10:07:30.736Z,250
2017-03-05T10:08:31.086Z,1185
2017-03-05T10:09:31.077Z,280
2017-03-05T10:10:31.077Z,275
2017-03-05T10:11:31.059Z,220
2017-03-05T10:12:31.034Z,215
2017-03-05T10:13:31.503Z,275
2017-03-05T10:14:30.982Z,270
2017-03-05T10:15:30.562Z,1075
2017-03-05T10:16:31.381Z,490
2017-03-05T10:17:30.972Z,545
2017-03-05T10:18:30.579Z,1080
2017-03-05T10:19:31.349Z,1265
2017-03-05T10:20:30.890Z,1270
2017-03-05T10:21:31.669Z,1155
2017-03-05T10:22:31.241Z,1155
2017-03-05T10:23:31.618Z,1125
2017-03-05T10:24:30.832Z,1095
2017-03-05T10:25:31.605Z,1085
2017-03-05T10:26:31.197Z,1135
2017-03-05T10:27:31.336Z,1090
2017-03-05T10:28:31.564Z,1215
2017-03-05T10:29:31.553Z,1140
2017-03-05T10:30:30.730Z,1095
2017-03-05T10:31:31.129Z,1070
2017-03-05T10:32:31.501Z,420
2017-03-05T10:33:31.111Z,810
2017-03-05T10:34:31.479Z,975
2017-03-05T10:35:31.095Z,995
2017-03-05T10:36:31.080Z,950
2017-03-05T10:37:31.201Z,1060
2017-03-05T10:38:31.046Z,1030
2017-03-05T10:39:30.648Z,980
2017-03-05T10:40:31.017Z,1010
2017-03-05T10:41:31.395Z,980
2017-03-05T10:42:31.025Z,955
2017-03-05T10:43:31.397Z,965
2017-03-05T10:44:31.060Z,955
2017-03-05T10:45:30.925Z,950
2017-03-05T10:46:30.546Z,955
2017-03-05T10:47:30.940Z,175
2017-03-05T10:48:30.944Z,175
2017-03-05T10:49:31.001Z,365
2017-03-05T10:50:30.136Z,875
2017-03-05T10:51:30.112Z,160
2017-03-05T10:52:30.510Z,150
2017-03-05T10:53:30.900Z,160
2017-03-05T10:54:30.847Z,175
2017-03-05T10:55:31.203Z,185
2017-03-05T10:56:30.824Z,545
2017-03-05T10:57:30.835Z,785
2017-03-05T10:58:30.773Z,570
2017-03-05T10:59:30.425Z,860
2017-03-05T11:00:30.739Z,850
2017-03-05T11:01:31.247Z,685
2017-03-05T11:02:30.718Z,480
2017-03-05T11:03:30.705Z,235
2017-03-05T11:04:31.069Z,555
2017-03-05T11:05:30.278Z,170
2017-03-05T11:06:30.673Z,165
2017-03-05T11:07:30.248Z,185
2017-03-05T11:08:30.635Z,165
2017-03-05T11:09:30.662Z,160
2017-03-05T11:10:30.230Z,160
2017-03-05T11:11:30.190Z,170
2017-03-05T11:12:30.167Z,180
2017-03-05T11:13:30.977Z,190
2017-03-05T11:14:30.131Z,175
2017-03-05T11:15:30.201Z,175
2017-03-05T11:16:30.529Z,165
2017-03-05T11:17:30.111Z,185
2017-03-05T11:18:30.508Z,195
2017-03-05T11:19:30.201Z,215
2017-03-05T11:20:30.031Z,430
2017-03-05T11:21:30.438Z,440
2017-03-05T11:22:30.402Z,255
2017-03-05T11:23:30.395Z,225
2017-03-05T11:24:30.383Z,275
2017-03-05T11:25:30.804Z,375
2017-03-05T11:26:30.350Z,385
2017-03-05T11:27:30.296Z,380
2017-03-05T11:28:30.696Z,365
2017-03-05T11:29:30.654Z,415
2017-03-05T11:30:30.277Z,400
2017-03-05T11:31:29.922Z,395
2017-03-05T11:32:30.237Z,305
2017-03-05T11:33:29.821Z,215
2017-03-05T11:34:30.229Z,390
2017-03-05T11:35:29.848Z,415
2017-03-05T11:36:30.159Z,235
2017-03-05T11:37:29.371Z,330
2017-03-05T11:38:29.738Z,195
2017-03-05T11:39:29.836Z,180
2017-03-05T11:40:29.394Z,175
2017-03-05T11:41:29.692Z,180
2017-03-05T11:42:29.687Z,170
2017-03-05T11:43:30.059Z,170
2017-03-05T11:44:30.039Z,165
2017-03-05T11:45:30.131Z,170
2017-03-05T11:46:29.236Z,195
2017-03-05T11:47:29.595Z,230
2017-03-05T11:48:29.593Z,210
2017-03-05T11:49:29.955Z,200
2017-03-05T11:50:29.540Z,315
2017-03-05T11:51:29.667Z,300
2017-03-05T11:52:30.409Z,340
2017-03-05T11:53:29.896Z,340
2017-03-05T11:54:29.885Z,160
2017-03-05T11:55:29.437Z,155
2017-03-05T11:56:29.922Z,145
2017-03-05T11:57:29.027Z,140
2017-03-05T11:58:30.286Z,135
2017-03-05T11:59:29.771Z,145
2017-03-05T12:00:29.837Z,170
2017-03-05T12:01:29.398Z,255
2017-03-05T12:02:29.741Z,285
2017-03-05T12:03:29.717Z,290
2017-03-05T12:04:29.406Z,170
2017-03-05T12:05:29.676Z,155
2017-03-05T12:06:29.724Z,160
2017-03-05T12:07:29.258Z,150
2017-03-05T12:08:29.653Z,140
2017-03-05T12:09:28.881Z,135
2017-03-05T12:10:29.622Z,125
2017-03-05T12:11:30.007Z,125
2017-03-05T12:12:29.584Z,125
2017-03-05T12:13:29.521Z,130
2017-03-05T12:14:29.927Z,190
2017-03-05T12:15:28.761Z,205
2017-03-05T12:16:29.971Z,155
2017-03-05T12:17:29.855Z,260
2017-03-05T12:18:29.506Z,130
2017-03-05T12:19:29.066Z,125
2017-03-05T12:20:29.495Z,130
2017-03-05T12:21:29.061Z,145
2017-03-05T12:22:29.041Z,170
2017-03-05T12:23:29.009Z,180
2017-03-05T12:24:29.817Z,215
2017-03-05T12:25:29.772Z,180
2017-03-05T12:26:29.344Z,155
2017-03-05T12:27:28.923Z,175
2017-03-05T12:28:29.345Z,165
2017-03-05T12:29:28.876Z,215
2017-03-05T12:30:29.246Z,265
2017-03-05T12:31:29.238Z,290
2017-03-05T12:32:29.208Z,260
2017-03-05T12:33:28.931Z,270
2017-03-05T12:34:29.186Z,285
2017-03-05T12:35:29.167Z,280
2017-03-05T12:36:29.174Z,270
2017-03-05T12:37:29.154Z,265
2017-03-05T12:38:28.714Z,255
2017-03-05T12:39:29.506Z,250
2017-03-05T12:40:28.801Z,145
2017-03-05T12:41:29.075Z,135
2017-03-05T12:42:29.051Z,135
2017-03-05T12:43:29.026Z,135
2017-03-05T12:44:29.406Z,140
2017-03-05T12:45:28.989Z,135
2017-03-05T12:46:29.007Z,135
2017-03-05T12:47:28.202Z,135
2017-03-05T12:48:28.623Z,135
2017-03-05T12:49:28.947Z,120
2017-03-05T12:50:28.619Z,105
2017-03-05T12:51:28.109Z,95
2017-03-05T12:52:28.866Z,90
2017-03-05T12:53:28.079Z,90
2017-03-05T12:54:29.255Z,95
2017-03-05T12:55:28.817Z,95
2017-03-05T12:56:29.203Z,85
2017-03-05T12:57:28.881Z,80
2017-03-05T12:58:29.154Z,80
2017-03-05T12:59:27.977Z,80
2017-03-05T13:00:29.112Z,80
2017-03-05T13:01:28.703Z,85
2017-03-05T13:02:28.434Z,85
2017-03-05T13:03:28.680Z,90
2017-03-05T13:04:28.657Z,90
2017-03-05T13:05:27.883Z,90
2017-03-05T13:06:28.255Z,90
2017-03-05T13:07:28.617Z,80
2017-03-05T13:08:28.247Z,65
2017-03-05T13:09:28.688Z,60
2017-03-05T13:10:28.169Z,55
2017-03-05T13:11:28.936Z,55
2017-03-05T13:12:27.756Z,60
2017-03-05T13:13:28.563Z,70
2017-03-05T13:14:27.352Z,75
2017-03-05T13:15:28.443Z,105
2017-03-05T13:16:28.044Z,155
2017-03-05T13:17:28.034Z,170
2017-03-05T13:18:28.433Z,295
2017-03-05T13:19:27.743Z,165
2017-03-05T13:20:28.368Z,150
2017-03-05T13:21:28.465Z,140
2017-03-05T13:22:27.931Z,130
2017-03-05T13:23:28.709Z,260
2017-03-05T13:24:28.309Z,185
2017-03-05T13:25:28.310Z,95
2017-03-05T13:26:27.597Z,90
2017-03-05T13:27:28.688Z,85
2017-03-05T13:28:28.211Z,80
2017-03-05T13:29:27.469Z,85
2017-03-05T13:30:28.575Z,85
2017-03-05T13:31:28.286Z,85
2017-03-05T13:32:28.137Z,100
2017-03-05T13:33:27.814Z,120
2017-03-05T13:34:27.713Z,200
2017-03-05T13:35:28.102Z,295
2017-03-05T13:36:27.285Z,300
2017-03-05T13:37:28.494Z,305
2017-03-05T13:38:28.030Z,175
2017-03-05T13:39:28.152Z,185
2017-03-05T13:40:28.086Z,160
2017-03-05T13:41:27.993Z,255
2017-03-05T13:42:27.609Z,135
2017-03-05T13:43:27.640Z,125
2017-03-05T13:44:28.334Z,125
2017-03-05T13:45:27.559Z,125
2017-03-05T13:46:27.971Z,155
2017-03-05T13:47:27.168Z,275
2017-03-05T13:48:27.596Z,275
2017-03-05T13:49:27.859Z,275
2017-03-05T13:50:27.833Z,275
2017-03-05T13:51:27.425Z,125
2017-03-05T13:52:28.283Z,140
2017-03-05T13:53:27.162Z,265
2017-03-05T13:54:28.224Z,270
2017-03-05T13:55:26.964Z,275
2017-03-05T13:56:27.335Z,280
2017-03-05T13:57:27.372Z,270
2017-03-05T13:58:27.722Z,275
2017-03-05T13:59:27.671Z,275
2017-03-05T14:00:27.313Z,275
2017-03-05T14:01:27.265Z,265
2017-03-05T14:02:27.671Z,185
2017-03-05T14:03:26.831Z,190
2017-03-05T14:04:28.029Z,250
2017-03-05T14:05:27.602Z,230
2017-03-05T14:06:27.951Z,165
2017-03-05T14:07:26.818Z,190
2017-03-05T14:08:27.162Z,260
2017-03-05T14:09:27.252Z,255
2017-03-05T14:10:27.114Z,260
2017-03-05T14:11:27.934Z,175
2017-03-05T14:12:27.132Z,150
2017-03-05T14:13:27.514Z,285
2017-03-05T14:14:27.463Z,150
2017-03-05T14:15:27.432Z,285
2017-03-05T14:16:27.791Z,270
2017-03-05T14:17:27.389Z,180
2017-03-05T14:18:26.974Z,165